sensor_id;sensor_type;location;lat;lon;timestamp;temperature;humidity
37642;DHT22;23486;51.956;5.888;2023-04-30T00:00:51;8.90;99.90
37642;DHT22;23486;51.956;5.888;2023-04-30T00:03:17;8.80;99.90
37642;DHT22;23486;51.956;5.888;2023-04-30T00:05:42;8.80;99.90
37642;DHT22;23486;51.956;5.888;2023-04-30T00:08:08;8.80;99.90
37642;DHT22;23486;51.956;5.888;2023-04-30T00:10:33;8.80;99.90
37642;DHT22;23486;51.956;5.888;2023-04-30T00:12:59;8.80;99.90
37642;DHT22;23486;51.956;5.888;2023-04-30T00:15:24;8.70;99.90
37642;DHT22;23486;51.956;5.888;2023-04-30T00:17:50;8.70;99.90
37642;DHT22;23486;51.956;5.888;2023-04-30T00:20:15;8.60;99.90
37642;DHT22;23486;51.956;5.888;2023-04-30T00:22:41;8.50;99.90
37642;DHT22;23486;51.956;5.888;2023-04-30T00:25:07;8.50;99.90
37642;DHT22;23486;51.956;5.888;2023-04-30T00:27:33;8.40;99.90
37642;DHT22;23486;51.956;5.888;2023-04-30T00:29:59;8.40;99.90
37642;DHT22;23486;51.956;5.888;2023-04-30T00:32:25;8.40;99.90
37642;DHT22;23486;51.956;5.888;2023-04-30T00:34:50;8.40;99.90
37642;DHT22;23486;51.956;5.888;2023-04-30T00:37:16;8.40;99.90
37642;DHT22;23486;51.956;5.888;2023-04-30T00:39:42;8.40;99.90
37642;DHT22;23486;51.956;5.888;2023-04-30T00:42:07;8.40;99.90
37642;DHT22;23486;51.956;5.888;2023-04-30T00:44:33;8.40;99.90
37642;DHT22;23486;51.956;5.888;2023-04-30T00:46:58;8.40;99.90
37642;DHT22;23486;51.956;5.888;2023-04-30T00:49:24;8.40;99.90
37642;DHT22;23486;51.956;5.888;2023-04-30T00:51:50;8.30;99.90
37642;DHT22;23486;51.956;5.888;2023-04-30T00:54:19;8.30;99.90
37642;DHT22;23486;51.956;5.888;2023-04-30T00:56:45;8.30;99.90
37642;DHT22;23486;51.956;5.888;2023-04-30T00:59:12;8.20;99.90
37642;DHT22;23486;51.956;5.888;2023-04-30T01:01:38;8.20;99.90
37642;DHT22;23486;51.956;5.888;2023-04-30T01:04:04;8.20;99.90
37642;DHT22;23486;51.956;5.888;2023-04-30T01:06:30;8.20;99.90
37642;DHT22;23486;51.956;5.888;2023-04-30T01:08:56;8.10;99.90
37642;DHT22;23486;51.956;5.888;2023-04-30T01:11:30;8.10;99.90
37642;DHT22;23486;51.956;5.888;2023-04-30T01:14:06;8.00;99.90
37642;DHT22;23486;51.956;5.888;2023-04-30T01:16:38;8.00;99.90
37642;DHT22;23486;51.956;5.888;2023-04-30T01:19:09;8.00;99.90
37642;DHT22;23486;51.956;5.888;2023-04-30T01:21:41;8.00;99.90
37642;DHT22;23486;51.956;5.888;2023-04-30T01:29:21;7.90;99.90
37642;DHT22;23486;51.956;5.888;2023-04-30T01:31:47;7.90;99.90
37642;DHT22;23486;51.956;5.888;2023-04-30T01:34:13;7.90;99.90
37642;DHT22;23486;51.956;5.888;2023-04-30T01:36:46;7.90;99.90
37642;DHT22;23486;51.956;5.888;2023-04-30T01:42:19;7.80;99.90
37642;DHT22;23486;51.956;5.888;2023-04-30T01:45:03;7.80;99.90
37642;DHT22;23486;51.956;5.888;2023-04-30T01:48:21;7.80;99.90
37642;DHT22;23486;51.956;5.888;2023-04-30T01:51:01;7.80;99.90
37642;DHT22;23486;51.956;5.888;2023-04-30T01:53:34;7.70;99.90
37642;DHT22;23486;51.956;5.888;2023-04-30T01:56:04;7.70;99.90
37642;DHT22;23486;51.956;5.888;2023-04-30T01:58:31;7.70;99.90
37642;DHT22;23486;51.956;5.888;2023-04-30T02:00:56;7.60;99.90
37642;DHT22;23486;51.956;5.888;2023-04-30T02:03:22;7.60;99.90
37642;DHT22;23486;51.956;5.888;2023-04-30T02:05:49;7.60;99.90
37642;DHT22;23486;51.956;5.888;2023-04-30T02:08:15;7.50;99.90
37642;DHT22;23486;51.956;5.888;2023-04-30T02:10:40;7.50;99.90
37642;DHT22;23486;51.956;5.888;2023-04-30T02:13:06;7.50;99.90
37642;DHT22;23486;51.956;5.888;2023-04-30T02:15:32;7.50;99.90
37642;DHT22;23486;51.956;5.888;2023-04-30T02:17:57;7.40;99.90
37642;DHT22;23486;51.956;5.888;2023-04-30T02:20:23;7.50;99.90
37642;DHT22;23486;51.956;5.888;2023-04-30T02:22:49;7.40;99.90
37642;DHT22;23486;51.956;5.888;2023-04-30T02:25:15;7.40;99.90
37642;DHT22;23486;51.956;5.888;2023-04-30T02:27:40;7.40;99.90
37642;DHT22;23486;51.956;5.888;2023-04-30T02:30:06;7.40;99.90
37642;DHT22;23486;51.956;5.888;2023-04-30T02:32:32;7.30;99.90
37642;DHT22;23486;51.956;5.888;2023-04-30T02:34:58;7.30;99.90
37642;DHT22;23486;51.956;5.888;2023-04-30T02:37:23;7.30;99.90
37642;DHT22;23486;51.956;5.888;2023-04-30T02:39:52;7.20;99.90
37642;DHT22;23486;51.956;5.888;2023-04-30T02:42:18;7.30;99.90
37642;DHT22;23486;51.956;5.888;2023-04-30T02:44:43;7.30;99.90
37642;DHT22;23486;51.956;5.888;2023-04-30T02:47:09;7.30;99.90
37642;DHT22;23486;51.956;5.888;2023-04-30T02:49:35;7.20;99.90
37642;DHT22;23486;51.956;5.888;2023-04-30T02:52:00;7.20;99.90
37642;DHT22;23486;51.956;5.888;2023-04-30T02:54:26;7.20;99.90
37642;DHT22;23486;51.956;5.888;2023-04-30T02:56:52;7.20;99.90
37642;DHT22;23486;51.956;5.888;2023-04-30T02:59:18;7.20;99.90
37642;DHT22;23486;51.956;5.888;2023-04-30T03:01:43;7.20;99.90
37642;DHT22;23486;51.956;5.888;2023-04-30T03:04:09;7.20;99.90
37642;DHT22;23486;51.956;5.888;2023-04-30T03:06:35;7.10;99.90
37642;DHT22;23486;51.956;5.888;2023-04-30T03:09:00;7.10;99.90
37642;DHT22;23486;51.956;5.888;2023-04-30T03:11:26;7.10;99.90
37642;DHT22;23486;51.956;5.888;2023-04-30T03:13:52;7.10;99.90
37642;DHT22;23486;51.956;5.888;2023-04-30T03:16:19;7.00;99.90
37642;DHT22;23486;51.956;5.888;2023-04-30T03:18:48;7.00;99.90
37642;DHT22;23486;51.956;5.888;2023-04-30T03:21:14;7.00;99.90
37642;DHT22;23486;51.956;5.888;2023-04-30T03:23:40;7.00;99.90
37642;DHT22;23486;51.956;5.888;2023-04-30T03:26:06;7.00;99.90
37642;DHT22;23486;51.956;5.888;2023-04-30T03:28:33;6.90;99.90
37642;DHT22;23486;51.956;5.888;2023-04-30T03:30:59;6.90;99.90
37642;DHT22;23486;51.956;5.888;2023-04-30T03:33:25;7.00;99.90
37642;DHT22;23486;51.956;5.888;2023-04-30T03:35:53;6.90;99.90
37642;DHT22;23486;51.956;5.888;2023-04-30T03:38:18;6.90;99.90
37642;DHT22;23486;51.956;5.888;2023-04-30T03:40:44;6.90;99.90
37642;DHT22;23486;51.956;5.888;2023-04-30T03:43:10;6.90;99.90
37642;DHT22;23486;51.956;5.888;2023-04-30T03:45:36;7.00;99.90
37642;DHT22;23486;51.956;5.888;2023-04-30T03:48:02;6.90;99.90
37642;DHT22;23486;51.956;5.888;2023-04-30T03:50:27;6.90;99.90
37642;DHT22;23486;51.956;5.888;2023-04-30T03:52:53;6.90;99.90
37642;DHT22;23486;51.956;5.888;2023-04-30T03:55:18;6.90;99.90
37642;DHT22;23486;51.956;5.888;2023-04-30T03:57:44;6.90;99.90
37642;DHT22;23486;51.956;5.888;2023-04-30T04:00:10;6.80;99.90
37642;DHT22;23486;51.956;5.888;2023-04-30T04:02:38;6.80;99.90
37642;DHT22;23486;51.956;5.888;2023-04-30T04:05:04;6.80;99.90
37642;DHT22;23486;51.956;5.888;2023-04-30T04:07:30;6.80;99.90
37642;DHT22;23486;51.956;5.888;2023-04-30T04:09:55;6.70;99.90
37642;DHT22;23486;51.956;5.888;2023-04-30T04:12:21;6.70;99.90
37642;DHT22;23486;51.956;5.888;2023-04-30T04:14:46;6.70;99.90
37642;DHT22;23486;51.956;5.888;2023-04-30T04:17:12;6.70;99.90
37642;DHT22;23486;51.956;5.888;2023-04-30T04:19:38;6.70;99.90
37642;DHT22;23486;51.956;5.888;2023-04-30T04:22:04;6.70;99.90
37642;DHT22;23486;51.956;5.888;2023-04-30T04:24:30;6.70;99.90
37642;DHT22;23486;51.956;5.888;2023-04-30T04:26:56;6.70;99.90
37642;DHT22;23486;51.956;5.888;2023-04-30T04:29:22;6.70;99.90
37642;DHT22;23486;51.956;5.888;2023-04-30T04:31:48;6.70;99.90
37642;DHT22;23486;51.956;5.888;2023-04-30T04:34:15;6.70;99.90
37642;DHT22;23486;51.956;5.888;2023-04-30T04:36:41;6.70;99.90
37642;DHT22;23486;51.956;5.888;2023-04-30T04:39:07;6.70;99.90
37642;DHT22;23486;51.956;5.888;2023-04-30T04:41:33;6.70;99.90
37642;DHT22;23486;51.956;5.888;2023-04-30T04:43:59;6.70;99.90
37642;DHT22;23486;51.956;5.888;2023-04-30T04:46:26;6.70;99.90
37642;DHT22;23486;51.956;5.888;2023-04-30T04:48:52;6.70;99.90
37642;DHT22;23486;51.956;5.888;2023-04-30T04:51:18;6.70;99.90
37642;DHT22;23486;51.956;5.888;2023-04-30T04:53:44;6.70;99.90
37642;DHT22;23486;51.956;5.888;2023-04-30T04:56:10;6.70;99.90
37642;DHT22;23486;51.956;5.888;2023-04-30T04:58:35;6.80;99.90
37642;DHT22;23486;51.956;5.888;2023-04-30T05:01:01;6.80;99.90
37642;DHT22;23486;51.956;5.888;2023-04-30T05:03:27;6.80;99.90
37642;DHT22;23486;51.956;5.888;2023-04-30T05:05:53;6.80;99.90
37642;DHT22;23486;51.956;5.888;2023-04-30T05:08:19;6.90;99.90
37642;DHT22;23486;51.956;5.888;2023-04-30T05:10:44;6.90;99.90
37642;DHT22;23486;51.956;5.888;2023-04-30T05:13:10;6.90;99.90
37642;DHT22;23486;51.956;5.888;2023-04-30T05:15:36;7.00;99.90
37642;DHT22;23486;51.956;5.888;2023-04-30T05:18:02;7.00;99.90
37642;DHT22;23486;51.956;5.888;2023-04-30T05:20:27;7.10;99.90
37642;DHT22;23486;51.956;5.888;2023-04-30T05:22:53;7.20;99.90
37642;DHT22;23486;51.956;5.888;2023-04-30T05:25:19;7.20;99.90
37642;DHT22;23486;51.956;5.888;2023-04-30T05:27:44;7.20;99.90
37642;DHT22;23486;51.956;5.888;2023-04-30T05:30:12;7.30;99.90
37642;DHT22;23486;51.956;5.888;2023-04-30T05:32:39;7.30;99.90
37642;DHT22;23486;51.956;5.888;2023-04-30T05:35:05;7.30;99.90
37642;DHT22;23486;51.956;5.888;2023-04-30T05:37:31;7.40;99.90
37642;DHT22;23486;51.956;5.888;2023-04-30T05:39:57;7.40;99.90
37642;DHT22;23486;51.956;5.888;2023-04-30T05:42:22;7.50;99.90
37642;DHT22;23486;51.956;5.888;2023-04-30T05:44:48;7.50;99.90
37642;DHT22;23486;51.956;5.888;2023-04-30T05:47:14;7.60;99.90
37642;DHT22;23486;51.956;5.888;2023-04-30T05:49:40;7.60;99.90
37642;DHT22;23486;51.956;5.888;2023-04-30T05:52:05;7.70;99.90
37642;DHT22;23486;51.956;5.888;2023-04-30T05:54:31;7.70;99.90
37642;DHT22;23486;51.956;5.888;2023-04-30T05:56:57;7.70;99.90
37642;DHT22;23486;51.956;5.888;2023-04-30T05:59:22;7.80;99.90
37642;DHT22;23486;51.956;5.888;2023-04-30T06:01:48;7.90;99.90
37642;DHT22;23486;51.956;5.888;2023-04-30T06:04:13;7.90;99.90
37642;DHT22;23486;51.956;5.888;2023-04-30T06:06:39;8.00;99.90
37642;DHT22;23486;51.956;5.888;2023-04-30T06:09:05;8.00;99.90
37642;DHT22;23486;51.956;5.888;2023-04-30T06:11:31;8.10;99.90
37642;DHT22;23486;51.956;5.888;2023-04-30T06:13:57;8.20;99.90
37642;DHT22;23486;51.956;5.888;2023-04-30T06:16:22;8.20;99.90
37642;DHT22;23486;51.956;5.888;2023-04-30T06:18:48;8.30;99.90
37642;DHT22;23486;51.956;5.888;2023-04-30T06:21:13;8.30;99.90
37642;DHT22;23486;51.956;5.888;2023-04-30T06:23:39;8.40;99.90
37642;DHT22;23486;51.956;5.888;2023-04-30T06:26:05;8.40;99.90
37642;DHT22;23486;51.956;5.888;2023-04-30T06:28:31;8.40;99.90
37642;DHT22;23486;51.956;5.888;2023-04-30T06:30:56;8.50;99.90
37642;DHT22;23486;51.956;5.888;2023-04-30T06:33:22;8.50;99.90
37642;DHT22;23486;51.956;5.888;2023-04-30T06:35:47;8.50;99.90
37642;DHT22;23486;51.956;5.888;2023-04-30T06:38:15;8.60;99.90
37642;DHT22;23486;51.956;5.888;2023-04-30T06:40:43;8.70;99.90
37642;DHT22;23486;51.956;5.888;2023-04-30T06:43:09;8.80;99.90
37642;DHT22;23486;51.956;5.888;2023-04-30T06:45:35;8.80;99.90
37642;DHT22;23486;51.956;5.888;2023-04-30T06:48:00;8.90;99.90
37642;DHT22;23486;51.956;5.888;2023-04-30T06:50:26;8.90;99.90
37642;DHT22;23486;51.956;5.888;2023-04-30T06:52:51;9.00;99.90
37642;DHT22;23486;51.956;5.888;2023-04-30T06:55:17;9.00;99.90
37642;DHT22;23486;51.956;5.888;2023-04-30T06:57:46;9.00;99.90
37642;DHT22;23486;51.956;5.888;2023-04-30T07:00:12;9.10;99.90
37642;DHT22;23486;51.956;5.888;2023-04-30T07:02:40;9.10;99.90
37642;DHT22;23486;51.956;5.888;2023-04-30T07:05:06;9.10;99.90
37642;DHT22;23486;51.956;5.888;2023-04-30T07:07:31;9.20;99.90
37642;DHT22;23486;51.956;5.888;2023-04-30T07:09:57;9.20;99.90
37642;DHT22;23486;51.956;5.888;2023-04-30T07:12:23;9.30;99.90
37642;DHT22;23486;51.956;5.888;2023-04-30T07:14:49;9.40;99.90
37642;DHT22;23486;51.956;5.888;2023-04-30T07:17:14;9.40;99.90
37642;DHT22;23486;51.956;5.888;2023-04-30T07:19:40;9.50;99.90
37642;DHT22;23486;51.956;5.888;2023-04-30T07:22:05;9.50;99.90
37642;DHT22;23486;51.956;5.888;2023-04-30T07:24:31;9.50;99.90
37642;DHT22;23486;51.956;5.888;2023-04-30T07:26:57;9.60;99.90
37642;DHT22;23486;51.956;5.888;2023-04-30T07:29:27;9.70;99.90
37642;DHT22;23486;51.956;5.888;2023-04-30T07:31:53;9.70;99.90
37642;DHT22;23486;51.956;5.888;2023-04-30T07:34:19;9.80;99.90
37642;DHT22;23486;51.956;5.888;2023-04-30T07:36:46;9.80;99.90
37642;DHT22;23486;51.956;5.888;2023-04-30T07:39:12;9.80;99.90
37642;DHT22;23486;51.956;5.888;2023-04-30T07:41:38;9.90;99.90
37642;DHT22;23486;51.956;5.888;2023-04-30T07:44:03;9.90;99.90
37642;DHT22;23486;51.956;5.888;2023-04-30T07:46:29;10.00;99.90
37642;DHT22;23486;51.956;5.888;2023-04-30T07:48:55;10.00;99.90
37642;DHT22;23486;51.956;5.888;2023-04-30T07:51:21;10.10;99.90
37642;DHT22;23486;51.956;5.888;2023-04-30T07:53:46;10.10;99.90
37642;DHT22;23486;51.956;5.888;2023-04-30T07:56:12;10.20;99.90
37642;DHT22;23486;51.956;5.888;2023-04-30T07:58:37;10.30;99.90
37642;DHT22;23486;51.956;5.888;2023-04-30T08:01:04;10.30;99.90
37642;DHT22;23486;51.956;5.888;2023-04-30T08:03:30;10.40;99.90
37642;DHT22;23486;51.956;5.888;2023-04-30T08:05:56;10.40;99.90
37642;DHT22;23486;51.956;5.888;2023-04-30T08:08:21;10.50;99.90
37642;DHT22;23486;51.956;5.888;2023-04-30T08:10:47;10.50;99.90
37642;DHT22;23486;51.956;5.888;2023-04-30T08:13:12;10.60;99.90
37642;DHT22;23486;51.956;5.888;2023-04-30T08:15:38;10.70;99.90
37642;DHT22;23486;51.956;5.888;2023-04-30T08:18:04;10.60;99.90
37642;DHT22;23486;51.956;5.888;2023-04-30T08:20:31;10.70;99.90
37642;DHT22;23486;51.956;5.888;2023-04-30T08:22:57;10.80;99.90
37642;DHT22;23486;51.956;5.888;2023-04-30T08:25:22;10.80;99.90
37642;DHT22;23486;51.956;5.888;2023-04-30T08:27:48;10.90;99.90
37642;DHT22;23486;51.956;5.888;2023-04-30T08:30:14;11.00;99.90
37642;DHT22;23486;51.956;5.888;2023-04-30T08:32:39;11.00;99.90
37642;DHT22;23486;51.956;5.888;2023-04-30T08:35:06;11.10;99.90
37642;DHT22;23486;51.956;5.888;2023-04-30T08:37:32;11.10;99.90
37642;DHT22;23486;51.956;5.888;2023-04-30T08:39:58;11.20;99.90
37642;DHT22;23486;51.956;5.888;2023-04-30T08:42:25;11.30;99.90
37642;DHT22;23486;51.956;5.888;2023-04-30T08:44:53;11.30;99.90
37642;DHT22;23486;51.956;5.888;2023-04-30T08:47:19;11.30;99.90
37642;DHT22;23486;51.956;5.888;2023-04-30T08:49:46;11.40;99.90
37642;DHT22;23486;51.956;5.888;2023-04-30T08:52:12;11.50;99.90
37642;DHT22;23486;51.956;5.888;2023-04-30T08:54:37;11.50;99.90
37642;DHT22;23486;51.956;5.888;2023-04-30T08:57:03;11.60;99.90
37642;DHT22;23486;51.956;5.888;2023-04-30T08:59:29;11.60;99.90
37642;DHT22;23486;51.956;5.888;2023-04-30T09:01:55;11.70;99.90
37642;DHT22;23486;51.956;5.888;2023-04-30T09:04:20;11.80;99.90
37642;DHT22;23486;51.956;5.888;2023-04-30T09:06:46;11.80;99.90
37642;DHT22;23486;51.956;5.888;2023-04-30T09:09:13;11.80;99.90
37642;DHT22;23486;51.956;5.888;2023-04-30T09:11:40;11.90;99.90
37642;DHT22;23486;51.956;5.888;2023-04-30T09:14:06;11.90;99.90
37642;DHT22;23486;51.956;5.888;2023-04-30T09:16:49;11.90;99.90
37642;DHT22;23486;51.956;5.888;2023-04-30T09:19:29;12.00;99.90
37642;DHT22;23486;51.956;5.888;2023-04-30T09:21:55;12.10;99.90
37642;DHT22;23486;51.956;5.888;2023-04-30T09:24:23;12.10;99.90
37642;DHT22;23486;51.956;5.888;2023-04-30T09:26:49;12.20;99.90
37642;DHT22;23486;51.956;5.888;2023-04-30T09:29:15;12.30;99.90
37642;DHT22;23486;51.956;5.888;2023-04-30T09:31:44;12.50;99.90
37642;DHT22;23486;51.956;5.888;2023-04-30T09:34:10;12.50;99.90
37642;DHT22;23486;51.956;5.888;2023-04-30T09:36:51;12.50;99.90
37642;DHT22;23486;51.956;5.888;2023-04-30T09:39:17;12.60;99.90
37642;DHT22;23486;51.956;5.888;2023-04-30T09:41:43;12.70;99.90
37642;DHT22;23486;51.956;5.888;2023-04-30T09:44:29;12.70;99.90
37642;DHT22;23486;51.956;5.888;2023-04-30T09:46:56;12.70;99.90
37642;DHT22;23486;51.956;5.888;2023-04-30T09:49:24;12.80;99.90
37642;DHT22;23486;51.956;5.888;2023-04-30T09:51:59;12.90;99.90
37642;DHT22;23486;51.956;5.888;2023-04-30T09:54:28;13.00;99.90
37642;DHT22;23486;51.956;5.888;2023-04-30T09:56:57;13.10;99.90
37642;DHT22;23486;51.956;5.888;2023-04-30T10:01:58;13.20;99.90
37642;DHT22;23486;51.956;5.888;2023-04-30T10:04:26;13.30;99.90
37642;DHT22;23486;51.956;5.888;2023-04-30T10:06:54;13.30;99.90
37642;DHT22;23486;51.956;5.888;2023-04-30T10:09:21;13.50;99.90
37642;DHT22;23486;51.956;5.888;2023-04-30T10:11:49;13.60;99.90
37642;DHT22;23486;51.956;5.888;2023-04-30T10:14:17;13.60;99.90
37642;DHT22;23486;51.956;5.888;2023-04-30T10:17:10;13.70;99.90
37642;DHT22;23486;51.956;5.888;2023-04-30T10:19:39;13.80;99.90
37642;DHT22;23486;51.956;5.888;2023-04-30T10:22:08;13.70;99.90
37642;DHT22;23486;51.956;5.888;2023-04-30T10:24:35;13.70;99.90
37642;DHT22;23486;51.956;5.888;2023-04-30T10:27:02;13.70;99.90
37642;DHT22;23486;51.956;5.888;2023-04-30T10:29:28;13.80;99.90
37642;DHT22;23486;51.956;5.888;2023-04-30T10:31:53;13.80;99.90
37642;DHT22;23486;51.956;5.888;2023-04-30T10:34:37;13.90;99.90
37642;DHT22;23486;51.956;5.888;2023-04-30T10:37:38;14.00;99.90
37642;DHT22;23486;51.956;5.888;2023-04-30T10:40:05;14.10;99.90
37642;DHT22;23486;51.956;5.888;2023-04-30T10:42:35;14.20;99.90
37642;DHT22;23486;51.956;5.888;2023-04-30T10:45:02;14.20;99.90
37642;DHT22;23486;51.956;5.888;2023-04-30T10:47:28;14.30;99.90
37642;DHT22;23486;51.956;5.888;2023-04-30T10:50:04;14.30;99.90
37642;DHT22;23486;51.956;5.888;2023-04-30T10:52:29;14.40;99.90
37642;DHT22;23486;51.956;5.888;2023-04-30T10:54:55;14.50;99.90
37642;DHT22;23486;51.956;5.888;2023-04-30T10:57:21;14.50;99.90
37642;DHT22;23486;51.956;5.888;2023-04-30T11:02:15;14.70;99.90
37642;DHT22;23486;51.956;5.888;2023-04-30T11:07:32;14.90;99.90
37642;DHT22;23486;51.956;5.888;2023-04-30T11:09:59;14.80;99.90
37642;DHT22;23486;51.956;5.888;2023-04-30T11:12:27;15.00;99.90
37642;DHT22;23486;51.956;5.888;2023-04-30T11:15:15;15.00;99.90
37642;DHT22;23486;51.956;5.888;2023-04-30T11:17:47;15.20;99.90
37642;DHT22;23486;51.956;5.888;2023-04-30T11:20:13;15.30;99.90
37642;DHT22;23486;51.956;5.888;2023-04-30T11:22:44;15.30;99.90
37642;DHT22;23486;51.956;5.888;2023-04-30T11:25:11;15.30;99.90
37642;DHT22;23486;51.956;5.888;2023-04-30T11:27:44;15.30;99.90
37642;DHT22;23486;51.956;5.888;2023-04-30T11:30:17;15.40;99.90
37642;DHT22;23486;51.956;5.888;2023-04-30T11:32:44;15.50;99.90
37642;DHT22;23486;51.956;5.888;2023-04-30T11:35:12;15.60;99.90
37642;DHT22;23486;51.956;5.888;2023-04-30T11:37:42;15.60;99.90
37642;DHT22;23486;51.956;5.888;2023-04-30T11:40:10;15.60;99.90
37642;DHT22;23486;51.956;5.888;2023-04-30T11:42:37;15.60;99.90
37642;DHT22;23486;51.956;5.888;2023-04-30T11:45:06;15.80;99.90
37642;DHT22;23486;51.956;5.888;2023-04-30T11:47:46;15.90;99.90
37642;DHT22;23486;51.956;5.888;2023-04-30T11:50:14;16.00;99.90
37642;DHT22;23486;51.956;5.888;2023-04-30T11:52:40;16.10;99.90
37642;DHT22;23486;51.956;5.888;2023-04-30T11:55:14;16.30;99.90
37642;DHT22;23486;51.956;5.888;2023-04-30T11:57:54;16.40;99.90
37642;DHT22;23486;51.956;5.888;2023-04-30T12:00:24;16.40;99.90
37642;DHT22;23486;51.956;5.888;2023-04-30T12:02:52;16.40;99.30
37642;DHT22;23486;51.956;5.888;2023-04-30T12:05:19;16.30;98.90
37642;DHT22;23486;51.956;5.888;2023-04-30T12:08:00;16.30;99.60
37642;DHT22;23486;51.956;5.888;2023-04-30T12:10:30;16.40;99.50
37642;DHT22;23486;51.956;5.888;2023-04-30T12:12:57;16.60;99.70
37642;DHT22;23486;51.956;5.888;2023-04-30T12:15:24;16.80;99.80
37642;DHT22;23486;51.956;5.888;2023-04-30T12:17:58;16.90;99.60
37642;DHT22;23486;51.956;5.888;2023-04-30T12:20:28;17.10;99.50
37642;DHT22;23486;51.956;5.888;2023-04-30T12:22:55;17.10;98.40
37642;DHT22;23486;51.956;5.888;2023-04-30T12:25:22;17.10;98.00
37642;DHT22;23486;51.956;5.888;2023-04-30T12:27:51;17.20;98.20
37642;DHT22;23486;51.956;5.888;2023-04-30T12:30:24;17.20;98.00
37642;DHT22;23486;51.956;5.888;2023-04-30T12:32:56;17.40;97.20
37642;DHT22;23486;51.956;5.888;2023-04-30T12:35:22;17.40;96.60
37642;DHT22;23486;51.956;5.888;2023-04-30T12:37:50;17.40;96.30
37642;DHT22;23486;51.956;5.888;2023-04-30T12:40:18;17.60;96.50
37642;DHT22;23486;51.956;5.888;2023-04-30T12:42:44;17.60;96.70
37642;DHT22;23486;51.956;5.888;2023-04-30T12:45:11;17.80;96.80
37642;DHT22;23486;51.956;5.888;2023-04-30T12:47:41;18.00;96.40
37642;DHT22;23486;51.956;5.888;2023-04-30T12:50:10;18.10;96.40
37642;DHT22;23486;51.956;5.888;2023-04-30T12:52:39;18.20;95.90
37642;DHT22;23486;51.956;5.888;2023-04-30T12:55:18;18.00;94.70
37642;DHT22;23486;51.956;5.888;2023-04-30T13:00:44;17.90;93.30
37642;DHT22;23486;51.956;5.888;2023-04-30T13:03:11;17.90;93.30
37642;DHT22;23486;51.956;5.888;2023-04-30T13:05:37;17.90;93.40
37642;DHT22;23486;51.956;5.888;2023-04-30T13:08:03;18.10;93.80
37642;DHT22;23486;51.956;5.888;2023-04-30T13:10:32;18.30;93.70
37642;DHT22;23486;51.956;5.888;2023-04-30T13:12:59;18.30;92.40
37642;DHT22;23486;51.956;5.888;2023-04-30T13:15:25;18.20;92.20
37642;DHT22;23486;51.956;5.888;2023-04-30T13:17:52;18.30;92.70
37642;DHT22;23486;51.956;5.888;2023-04-30T13:20:18;18.40;92.80
37642;DHT22;23486;51.956;5.888;2023-04-30T13:22:43;18.60;92.90
37642;DHT22;23486;51.956;5.888;2023-04-30T13:25:09;18.60;92.20
37642;DHT22;23486;51.956;5.888;2023-04-30T13:27:34;18.50;92.10
37642;DHT22;23486;51.956;5.888;2023-04-30T13:30:01;18.40;92.10
37642;DHT22;23486;51.956;5.888;2023-04-30T13:32:29;18.50;92.10
37642;DHT22;23486;51.956;5.888;2023-04-30T13:34:56;18.60;92.20
37642;DHT22;23486;51.956;5.888;2023-04-30T13:37:22;18.80;92.20
37642;DHT22;23486;51.956;5.888;2023-04-30T13:39:49;19.00;92.30
37642;DHT22;23486;51.956;5.888;2023-04-30T13:42:15;19.10;91.70
37642;DHT22;23486;51.956;5.888;2023-04-30T13:44:41;19.20;91.80
37642;DHT22;23486;51.956;5.888;2023-04-30T13:47:06;19.40;91.70
37642;DHT22;23486;51.956;5.888;2023-04-30T13:49:34;19.40;90.90
37642;DHT22;23486;51.956;5.888;2023-04-30T13:52:01;19.50;90.90
37642;DHT22;23486;51.956;5.888;2023-04-30T13:54:27;19.70;91.20
37642;DHT22;23486;51.956;5.888;2023-04-30T13:56:53;19.90;91.70
37642;DHT22;23486;51.956;5.888;2023-04-30T13:59:20;20.10;91.40
37642;DHT22;23486;51.956;5.888;2023-04-30T14:01:45;20.30;91.00
37642;DHT22;23486;51.956;5.888;2023-04-30T14:04:11;20.50;91.00
37642;DHT22;23486;51.956;5.888;2023-04-30T14:06:38;20.60;90.10
37642;DHT22;23486;51.956;5.888;2023-04-30T14:09:04;20.60;90.00
37642;DHT22;23486;51.956;5.888;2023-04-30T14:11:31;20.80;90.10
37642;DHT22;23486;51.956;5.888;2023-04-30T14:13:56;21.00;90.10
37642;DHT22;23486;51.956;5.888;2023-04-30T14:16:22;21.20;89.60
37642;DHT22;23486;51.956;5.888;2023-04-30T14:18:48;21.10;86.20
37642;DHT22;23486;51.956;5.888;2023-04-30T14:21:14;20.70;82.70
37642;DHT22;23486;51.956;5.888;2023-04-30T14:23:39;20.40;82.60
37642;DHT22;23486;51.956;5.888;2023-04-30T14:26:06;20.50;83.60
37642;DHT22;23486;51.956;5.888;2023-04-30T14:28:31;20.50;83.20
37642;DHT22;23486;51.956;5.888;2023-04-30T14:30:57;20.60;83.90
37642;DHT22;23486;51.956;5.888;2023-04-30T14:33:23;20.60;83.50
37642;DHT22;23486;51.956;5.888;2023-04-30T14:35:48;20.60;83.20
37642;DHT22;23486;51.956;5.888;2023-04-30T14:38:14;20.60;79.80
37642;DHT22;23486;51.956;5.888;2023-04-30T14:40:42;20.50;78.70
37642;DHT22;23486;51.956;5.888;2023-04-30T14:43:07;20.40;78.90
37642;DHT22;23486;51.956;5.888;2023-04-30T14:45:34;20.20;78.90
37642;DHT22;23486;51.956;5.888;2023-04-30T14:48:03;20.00;78.80
37642;DHT22;23486;51.956;5.888;2023-04-30T14:50:29;20.00;80.40
37642;DHT22;23486;51.956;5.888;2023-04-30T14:52:56;20.20;80.50
37642;DHT22;23486;51.956;5.888;2023-04-30T14:55:22;20.30;80.30
37642;DHT22;23486;51.956;5.888;2023-04-30T14:57:47;20.50;80.90
37642;DHT22;23486;51.956;5.888;2023-04-30T15:00:13;20.60;80.20
37642;DHT22;23486;51.956;5.888;2023-04-30T15:02:41;20.80;77.70
37642;DHT22;23486;51.956;5.888;2023-04-30T15:05:07;20.80;77.90
37642;DHT22;23486;51.956;5.888;2023-04-30T15:07:33;20.90;78.30
37642;DHT22;23486;51.956;5.888;2023-04-30T15:09:59;20.90;77.30
37642;DHT22;23486;51.956;5.888;2023-04-30T15:12:24;21.10;77.50
37642;DHT22;23486;51.956;5.888;2023-04-30T15:14:51;21.30;77.80
37642;DHT22;23486;51.956;5.888;2023-04-30T15:17:17;21.20;77.10
37642;DHT22;23486;51.956;5.888;2023-04-30T15:19:42;21.40;78.10
37642;DHT22;23486;51.956;5.888;2023-04-30T15:22:09;21.60;78.40
37642;DHT22;23486;51.956;5.888;2023-04-30T15:24:35;21.80;78.00
37642;DHT22;23486;51.956;5.888;2023-04-30T15:27:01;22.00;78.50
37642;DHT22;23486;51.956;5.888;2023-04-30T15:29:27;22.30;77.90
37642;DHT22;23486;51.956;5.888;2023-04-30T15:31:52;22.40;76.20
37642;DHT22;23486;51.956;5.888;2023-04-30T15:34:20;22.40;75.50
37642;DHT22;23486;51.956;5.888;2023-04-30T15:36:47;22.50;74.20
37642;DHT22;23486;51.956;5.888;2023-04-30T15:39:13;22.50;73.30
37642;DHT22;23486;51.956;5.888;2023-04-30T15:41:38;22.50;72.40
37642;DHT22;23486;51.956;5.888;2023-04-30T15:44:04;22.30;70.40
37642;DHT22;23486;51.956;5.888;2023-04-30T15:46:30;22.10;70.50
37642;DHT22;23486;51.956;5.888;2023-04-30T15:48:55;22.20;71.10
37642;DHT22;23486;51.956;5.888;2023-04-30T15:51:21;22.10;69.70
37642;DHT22;23486;51.956;5.888;2023-04-30T15:53:47;22.10;69.20
37642;DHT22;23486;51.956;5.888;2023-04-30T15:56:13;22.00;69.80